createdAt,value
2019-04-26T00:00:49.123Z,54.20
2019-04-26T00:03:24.996Z,54.50
2019-04-26T00:05:55.811Z,54.50
2019-04-26T00:08:26.705Z,54.70
2019-04-26T00:11:16.107Z,54.80
2019-04-26T00:14:21.094Z,55.40
2019-04-26T00:17:01.821Z,55.70
2019-04-26T00:19:33.213Z,55.50
2019-04-26T00:22:04.009Z,55.40
2019-04-26T00:24:35.335Z,55.20
2019-04-26T00:27:05.940Z,55.10
2019-04-26T00:29:36.789Z,55.60
2019-04-26T00:32:07.719Z,55.80
2019-04-26T00:34:38.457Z,56.00
2019-04-26T00:37:09.521Z,56.20
2019-04-26T00:39:40.351Z,56.50
2019-04-26T00:42:12.224Z,56.80
2019-04-26T00:44:44.916Z,57.10
2019-04-26T00:47:16.971Z,57.80
2019-04-26T00:49:48.697Z,58.10
2019-04-26T00:52:19.611Z,57.90
2019-04-26T00:54:50.699Z,57.70
2019-04-26T00:57:22.434Z,58.20
2019-04-26T00:59:53.703Z,57.70
2019-04-26T01:02:42.177Z,57.70
2019-04-26T01:05:12.873Z,57.70
2019-04-26T01:07:45.179Z,58.30
2019-04-26T01:10:16.731Z,58.40
2019-04-26T01:12:48.599Z,58.20
2019-04-26T01:15:21.433Z,58.50
2019-04-26T01:17:52.106Z,58.60
2019-04-26T01:20:26.723Z,58.40
2019-04-26T01:23:00.550Z,58.60
2019-04-26T01:25:43.644Z,59.90
2019-04-26T01:28:18.496Z,60.00
2019-04-26T01:30:51.026Z,60.20
2019-04-26T01:33:22.581Z,60.00
2019-04-26T01:35:53.690Z,60.00
2019-04-26T01:38:25.625Z,59.90
2019-04-26T01:40:59.780Z,60.00
2019-04-26T01:43:51.985Z,60.00
2019-04-26T01:46:29.347Z,59.80
2019-04-26T01:49:03.011Z,59.80
2019-04-26T01:51:57.362Z,59.80
2019-04-26T01:54:32.421Z,59.80
2019-04-26T01:57:05.042Z,60.00
2019-04-26T01:59:39.588Z,60.10
2019-04-26T02:02:29.834Z,60.10
2019-04-26T02:05:03.875Z,60.30
2019-04-26T02:07:41.722Z,60.00
2019-04-26T02:10:17.660Z,59.70
2019-04-26T02:12:49.653Z,59.30
2019-04-26T02:15:24.473Z,59.50
2019-04-26T02:17:57.913Z,60.20
2019-04-26T02:21:16.669Z,60.90
2019-04-26T02:24:06.753Z,61.30
2019-04-26T02:26:39.324Z,61.40
2019-04-26T02:29:17.041Z,61.40
2019-04-26T02:31:53.683Z,61.60
2019-04-26T02:34:26.069Z,61.10
2019-04-26T02:37:00.670Z,60.80
2019-04-26T02:39:37.669Z,60.80
2019-04-26T02:42:16.464Z,60.40
2019-04-26T02:44:57.036Z,60.50
2019-04-26T02:47:51.679Z,60.40
2019-04-26T02:50:40.070Z,60.40
2019-04-26T02:53:36.565Z,61.00
2019-04-26T02:56:37.697Z,60.80
2019-04-26T02:59:38.248Z,60.40
2019-04-26T03:02:14.001Z,60.10
2019-04-26T03:04:47.647Z,60.00
2019-04-26T03:07:25.373Z,60.00
2019-04-26T03:09:58.391Z,60.30
2019-04-26T03:12:33.655Z,61.40
2019-04-26T03:15:32.166Z,62.80
2019-04-26T03:18:23.748Z,64.80
2019-04-26T03:21:00.221Z,64.30
2019-04-26T03:23:57.667Z,64.50
2019-04-26T03:26:43.347Z,64.70
2019-04-26T03:29:27.343Z,64.70
2019-04-26T03:32:16.443Z,63.60
2019-04-26T03:34:55.343Z,64.60
2019-04-26T03:37:46.790Z,64.90
2019-04-26T03:40:29.947Z,65.00
2019-04-26T03:43:48.214Z,65.60
2019-04-26T03:46:39.781Z,65.60
2019-04-26T03:49:25.761Z,66.40
2019-04-26T03:52:19.683Z,66.00
2019-04-26T03:54:54.287Z,65.80
2019-04-26T03:57:36.954Z,65.10
2019-04-26T04:00:43.417Z,65.30
2019-04-26T04:03:57.163Z,65.30
2019-04-26T04:06:48.443Z,65.60
2019-04-26T04:09:09.219Z,65.80
2019-04-26T04:12:10.298Z,65.70
2019-04-26T04:14:38.308Z,65.50
2019-04-26T04:17:29.535Z,65.70
2019-04-26T04:20:25.129Z,66.20
2019-04-26T04:23:07.062Z,65.60
2019-04-26T04:25:42.410Z,65.80
2019-04-26T04:28:26.598Z,65.90
2019-04-26T04:31:12.840Z,65.80
2019-04-26T04:33:52.463Z,66.40
2019-04-26T04:36:33.237Z,66.70
2019-04-26T04:39:38.628Z,66.10
2019-04-26T04:42:35.202Z,66.20
2019-04-26T04:45:56.341Z,65.90
2019-04-26T04:48:46.434Z,65.70
2019-04-26T04:51:36.755Z,65.60
2019-04-26T04:54:17.954Z,65.00
2019-04-26T04:57:12.216Z,65.10
2019-04-26T05:00:07.548Z,65.00
2019-04-26T05:02:52.066Z,65.20
2019-04-26T05:06:07.295Z,64.60
2019-04-26T05:08:40.989Z,64.10
2019-04-26T05:11:22.368Z,63.90
2019-04-26T05:14:12.736Z,63.60
2019-04-26T05:17:29.025Z,63.70
2019-04-26T05:20:32.092Z,65.30
2019-04-26T05:23:42.532Z,64.00
2019-04-26T05:27:08.983Z,64.10
2019-04-26T05:30:00.913Z,64.30
2019-04-26T05:32:57.751Z,65.10
2019-04-26T05:35:49.008Z,65.20
2019-04-26T05:38:45.503Z,64.80
2019-04-26T05:42:01.172Z,64.30
2019-04-26T05:45:08.584Z,63.50
2019-04-26T05:48:08.390Z,63.80
2019-04-26T05:51:14.524Z,63.50
2019-04-26T05:54:07.505Z,64.00
2019-04-26T05:57:06.291Z,64.70
2019-04-26T05:59:44.813Z,64.20
2019-04-26T06:03:13.928Z,64.70
2019-04-26T06:06:07.657Z,64.80
2019-04-26T06:09:28.644Z,65.40
2019-04-26T06:12:07.731Z,65.50
2019-04-26T06:15:28.456Z,65.20
2019-04-26T06:18:26.357Z,64.90
2019-04-26T06:21:25.587Z,64.90
2019-04-26T06:24:11.610Z,64.20
2019-04-26T06:27:13.128Z,63.80
2019-04-26T06:29:56.598Z,63.90
2019-04-26T06:32:56.146Z,63.10
2019-04-26T06:35:20.360Z,62.60
2019-04-26T06:39:02.326Z,62.20
2019-04-26T06:42:13.930Z,62.10
2019-04-26T06:45:41.048Z,61.70
2019-04-26T06:48:33.658Z,61.00
2019-04-26T06:51:24.168Z,60.40
2019-04-26T06:54:10.700Z,59.70
2019-04-26T06:57:15.324Z,59.50
2019-04-26T07:00:04.481Z,58.70
2019-04-26T07:03:32.035Z,58.50
2019-04-26T07:06:04.690Z,57.90
2019-04-26T07:08:58.077Z,56.30
2019-04-26T07:12:19.330Z,56.50
2019-04-26T07:15:33.472Z,56.10
2019-04-26T07:18:46.476Z,56.10
2019-04-26T07:21:35.815Z,55.40
2019-04-26T07:24:42.439Z,55.30
2019-04-26T07:27:27.407Z,55.30
2019-04-26T07:30:14.040Z,54.80
2019-04-26T07:33:33.755Z,54.30
2019-04-26T07:36:39.921Z,54.10
2019-04-26T07:39:48.732Z,54.00
2019-04-26T07:42:54.206Z,53.60
2019-04-26T07:45:47.117Z,53.80
2019-04-26T07:48:45.285Z,53.70
2019-04-26T07:52:02.835Z,53.80
2019-04-26T07:54:55.431Z,53.90
2019-04-26T07:57:46.317Z,53.40
2019-04-26T08:00:23.470Z,52.90
2019-04-26T08:03:19.328Z,52.40
2019-04-26T08:06:24.165Z,52.40
2019-04-26T08:09:07.554Z,52.40
2019-04-26T08:11:49.282Z,52.40
2019-04-26T08:14:27.633Z,52.10
2019-04-26T08:17:47.248Z,51.60
2019-04-26T08:20:48.345Z,51.50
2019-04-26T08:23:38.478Z,51.60
2019-04-26T08:26:01.848Z,51.90
2019-04-26T08:28:35.723Z,52.00
2019-04-26T08:31:09.459Z,52.00
2019-04-26T08:33:48.707Z,52.10
2019-04-26T08:36:23.244Z,51.80
2019-04-26T08:38:54.579Z,52.60
2019-04-26T08:41:26.145Z,51.50
2019-04-26T08:44:24.286Z,47.60
2019-04-26T08:47:16.987Z,44.30
2019-04-26T08:50:23.644Z,43.00
2019-04-26T08:52:57.939Z,42.50
2019-04-26T08:55:30.140Z,43.10
2019-04-26T08:58:04.247Z,44.00
2019-04-26T09:00:43.946Z,41.00
2019-04-26T09:03:55.142Z,41.10
2019-04-26T09:06:43.654Z,39.90
2019-04-26T09:09:22.567Z,40.10
2019-04-26T09:11:59.693Z,40.30
2019-04-26T09:14:31.996Z,39.60
2019-04-26T09:17:03.126Z,38.20
2019-04-26T09:19:33.962Z,37.40
2019-04-26T09:22:16.078Z,36.60
2019-04-26T09:24:59.437Z,36.90
2019-04-26T09:27:43.885Z,37.30
2019-04-26T09:30:33.983Z,37.20
2019-04-26T09:33:23.030Z,36.30
2019-04-26T09:35:53.816Z,36.80
2019-04-26T09:38:24.617Z,37.80
2019-04-26T09:40:56.316Z,37.10
2019-04-26T09:43:49.940Z,37.00
2019-04-26T09:46:57.949Z,37.60
2019-04-26T09:49:32.244Z,38.00
2019-04-26T09:52:03.950Z,37.90
2019-04-26T09:54:34.704Z,38.00
2019-04-26T09:57:05.634Z,38.00
2019-04-26T09:59:39.803Z,37.90
2019-04-26T10:02:09.963Z,38.10
2019-04-26T10:04:40.853Z,38.50
2019-04-26T10:07:11.653Z,38.10
2019-04-26T10:09:42.469Z,38.20
2019-04-26T10:12:24.722Z,38.30
2019-04-26T10:15:03.633Z,38.50
2019-04-26T10:17:34.850Z,38.90
2019-04-26T10:20:06.114Z,38.30
2019-04-26T10:22:37.088Z,38.10
2019-04-26T10:25:16.334Z,38.80
2019-04-26T10:27:42.565Z,39.40
2019-04-26T10:30:16.493Z,40.20
2019-04-26T10:32:47.501Z,40.30
2019-04-26T10:35:21.607Z,40.60
2019-04-26T10:37:52.589Z,40.80
2019-04-26T10:40:34.990Z,40.80
2019-04-26T10:42:55.715Z,40.60
2019-04-26T10:45:27.030Z,40.60
2019-04-26T10:47:57.781Z,40.60
2019-04-26T10:50:39.742Z,40.90
2019-04-26T10:53:17.633Z,41.40
2019-04-26T10:56:05.976Z,41.70
2019-04-26T10:58:55.894Z,41.40
2019-04-26T11:01:26.869Z,42.00
2019-04-26T11:03:57.793Z,42.30
2019-04-26T11:06:29.090Z,42.40
2019-04-26T11:08:59.961Z,42.50
2019-04-26T11:11:30.863Z,42.60
2019-04-26T11:14:01.767Z,42.40
2019-04-26T11:16:32.502Z,42.20
2019-04-26T11:19:03.408Z,42.10
2019-04-26T11:21:34.501Z,42.50
2019-04-26T11:24:05.138Z,42.40
2019-04-26T11:26:36.294Z,42.70
2019-04-26T11:29:06.882Z,42.30
2019-04-26T11:31:38.063Z,42.20
2019-04-26T11:34:08.998Z,42.60
2019-04-26T11:36:41.831Z,43.20
2019-04-26T11:39:13.386Z,43.50
2019-04-26T11:41:43.925Z,43.50
2019-04-26T11:44:14.281Z,43.80
2019-04-26T11:46:45.468Z,43.90
2019-04-26T11:49:16.183Z,43.90
2019-04-26T11:51:46.617Z,44.10
2019-04-26T11:54:20.637Z,43.50
2019-04-26T11:56:50.582Z,43.10
2019-04-26T11:59:21.116Z,43.20
2019-04-26T12:01:51.560Z,43.00
2019-04-26T12:04:43.703Z,43.00
2019-04-26T12:07:28.907Z,42.50
2019-04-26T12:10:01.411Z,42.90
2019-04-26T12:12:33.411Z,43.00
2019-04-26T12:15:08.419Z,43.10
2019-04-26T12:17:37.544Z,42.70
2019-04-26T12:20:08.522Z,42.60
2019-04-26T12:22:39.391Z,41.40
2019-04-26T12:25:11.456Z,41.20
2019-04-26T12:27:42.074Z,41.00
2019-04-26T12:30:13.154Z,41.30
2019-04-26T12:32:43.506Z,41.50
2019-04-26T12:35:14.157Z,40.20
2019-04-26T12:37:44.520Z,39.70
2019-04-26T12:40:15.116Z,39.60
2019-04-26T12:42:47.356Z,39.50
2019-04-26T12:45:39.760Z,41.30
2019-04-26T12:48:15.647Z,41.60
2019-04-26T12:50:44.525Z,41.70
2019-04-26T12:53:17.892Z,41.80
2019-04-26T12:55:49.164Z,41.30
2019-04-26T12:58:19.368Z,42.00
2019-04-26T13:00:54.350Z,42.10
2019-04-26T13:03:24.916Z,41.90
2019-04-26T13:05:58.221Z,42.00
2019-04-26T13:08:26.805Z,42.20
2019-04-26T13:11:18.928Z,42.00
2019-04-26T13:14:01.854Z,42.40
2019-04-26T13:16:42.996Z,42.90
2019-04-26T13:19:16.026Z,43.20
2019-04-26T13:21:46.672Z,43.20
2019-04-26T13:24:17.091Z,43.40
2019-04-26T13:26:50.030Z,43.70
2019-04-26T13:29:19.695Z,43.40
2019-04-26T13:31:50.039Z,43.80
2019-04-26T13:34:20.565Z,43.70
2019-04-26T13:36:50.950Z,43.90
2019-04-26T13:39:22.522Z,43.50
2019-04-26T13:42:03.051Z,43.60
2019-04-26T13:44:49.970Z,43.60
2019-04-26T13:47:37.039Z,44.10
2019-04-26T13:50:12.363Z,43.90
2019-04-26T13:52:42.926Z,43.50
2019-04-26T13:55:13.637Z,43.10
2019-04-26T13:57:44.524Z,43.30
2019-04-26T14:00:23.560Z,43.30
2019-04-26T14:02:54.037Z,42.90
2019-04-26T14:05:24.648Z,43.20
2019-04-26T14:07:55.017Z,43.00
2019-04-26T14:10:25.685Z,43.30
2019-04-26T14:12:56.184Z,43.40
2019-04-26T14:15:27.866Z,43.60
2019-04-26T14:18:00.296Z,43.00
2019-04-26T14:20:30.346Z,43.50
2019-04-26T14:23:18.381Z,42.40
2019-04-26T14:26:01.116Z,43.10
2019-04-26T14:28:30.822Z,41.70
2019-04-26T14:31:01.392Z,42.10
2019-04-26T14:33:32.316Z,42.70
2019-04-26T14:36:02.929Z,43.20
2019-04-26T14:38:39.334Z,44.60
2019-04-26T14:41:06.272Z,45.10
2019-04-26T14:43:41.067Z,43.70
2019-04-26T14:46:10.384Z,44.40
2019-04-26T14:48:44.739Z,44.70
2019-04-26T14:51:16.811Z,45.30
2019-04-26T14:53:47.263Z,45.20
2019-04-26T14:56:18.299Z,45.60
2019-04-26T14:58:49.263Z,45.80
2019-04-26T15:01:38.957Z,46.10
2019-04-26T15:04:37.569Z,46.90
2019-04-26T15:07:08.419Z,47.00
2019-04-26T15:09:39.328Z,46.60
2019-04-26T15:12:12.501Z,46.90
2019-04-26T15:14:42.347Z,47.50
2019-04-26T15:17:16.402Z,48.00
2019-04-26T15:19:47.170Z,48.60
2019-04-26T15:22:19.228Z,49.10
2019-04-26T15:24:50.190Z,49.30
2019-04-26T15:27:21.224Z,49.40
2019-04-26T15:29:52.572Z,49.30
2019-04-26T15:32:24.051Z,49.60
2019-04-26T15:34:58.623Z,49.30
2019-04-26T15:37:28.543Z,49.30
2019-04-26T15:40:06.280Z,49.40
2019-04-26T15:42:58.876Z,49.60
2019-04-26T15:45:35.893Z,49.50
2019-04-26T15:48:32.145Z,48.90
2019-04-26T15:51:03.547Z,49.10
2019-04-26T15:53:33.981Z,49.30
2019-04-26T15:56:04.436Z,49.20
2019-04-26T15:58:38.581Z,49.20
2019-04-26T16:01:10.859Z,49.30
2019-04-26T16:03:40.846Z,48.70
2019-04-26T16:06:12.656Z,49.00
2019-04-26T16:08:43.982Z,49.10
2019-04-26T16:11:15.428Z,49.00
2019-04-26T16:13:53.864Z,49.00
2019-04-26T16:16:20.730Z,49.10
2019-04-26T16:18:55.970Z,49.00
2019-04-26T16:21:23.321Z,49.10
2019-04-26T16:23:55.285Z,49.20
2019-04-26T16:26:26.053Z,49.20
2019-04-26T16:29:18.368Z,49.20
2019-04-26T16:32:09.513Z,49.60
2019-04-26T16:34:47.725Z,49.40
2019-04-26T16:37:14.963Z,49.50
2019-04-26T16:39:48.510Z,49.50
2019-04-26T16:42:17.801Z,49.50
2019-04-26T16:44:48.339Z,48.30
2019-04-26T16:47:18.794Z,47.10
2019-04-26T16:49:49.265Z,46.90
2019-04-26T16:52:19.928Z,47.10
2019-04-26T16:54:52.903Z,47.70
2019-04-26T16:57:24.303Z,47.90
2019-04-26T16:59:59.779Z,47.90
2019-04-26T17:02:28.177Z,48.30
2019-04-26T17:05:04.570Z,48.80
2019-04-26T17:07:30.882Z,49.10
2019-04-26T17:10:03.109Z,49.30
2019-04-26T17:12:33.567Z,49.70
2019-04-26T17:15:04.537Z,49.80
2019-04-26T17:17:35.092Z,49.80
2019-04-26T17:20:10.728Z,49.90
2019-04-26T17:23:01.078Z,50.20
2019-04-26T17:25:41.870Z,50.30
2019-04-26T17:28:13.964Z,50.40
2019-04-26T17:30:45.512Z,50.70
2019-04-26T17:33:15.896Z,51.20
2019-04-26T17:35:46.321Z,51.50
2019-04-26T17:38:16.831Z,51.70
2019-04-26T17:40:47.441Z,52.00
2019-04-26T17:43:17.876Z,52.60
2019-04-26T17:45:48.223Z,52.80
2019-04-26T17:48:18.627Z,53.10
2019-04-26T17:50:49.268Z,53.70
2019-04-26T17:53:28.624Z,54.00
2019-04-26T17:55:54.771Z,54.90
2019-04-26T17:58:31.035Z,54.50
2019-04-26T18:00:56.543Z,54.80
2019-04-26T18:03:28.261Z,55.00
2019-04-26T18:06:00.869Z,55.40
2019-04-26T18:08:36.779Z,58.40
2019-04-26T18:11:03.107Z,55.90
2019-04-26T18:13:33.571Z,56.60
2019-04-26T18:16:04.037Z,56.40
2019-04-26T18:19:02.421Z,56.40
2019-04-26T18:22:00.076Z,56.70
2019-04-26T18:24:32.238Z,56.40
2019-04-26T18:27:03.528Z,57.50
2019-04-26T18:29:34.271Z,57.80
2019-04-26T18:32:04.945Z,58.00
2019-04-26T18:34:40.254Z,58.10
2019-04-26T18:37:07.723Z,58.60
2019-04-26T18:39:39.185Z,58.80
2019-04-26T18:42:11.046Z,59.00
2019-04-26T18:44:47.581Z,59.00
2019-04-26T18:47:30.313Z,59.20
2019-04-26T18:50:03.693Z,59.60
2019-04-26T18:52:37.324Z,59.80
2019-04-26T18:55:16.304Z,59.90
2019-04-26T18:57:47.344Z,67.20
2019-04-26T19:00:30.260Z,61.30
2019-04-26T19:03:00.594Z,60.40
2019-04-26T19:05:31.101Z,60.30
2019-04-26T19:08:02.625Z,60.20
2019-04-26T19:10:34.373Z,60.50
2019-04-26T19:13:25.022Z,61.20
2019-04-26T19:16:05.970Z,61.80
2019-04-26T19:18:45.465Z,61.80
2019-04-26T19:21:39.154Z,61.90
2019-04-26T19:24:11.642Z,61.40
2019-04-26T19:26:39.221Z,61.30
2019-04-26T19:29:16.395Z,61.70
2019-04-26T19:31:42.985Z,62.50
2019-04-26T19:34:13.431Z,62.90
2019-04-26T19:36:43.893Z,63.60
2019-04-26T19:39:14.749Z,63.50
2019-04-26T19:41:46.165Z,63.90
2019-04-26T19:44:18.905Z,64.00
2019-04-26T19:47:07.376Z,63.60
2019-04-26T19:50:09.770Z,64.10
2019-04-26T19:52:55.823Z,63.60
2019-04-26T19:55:36.742Z,63.60
2019-04-26T19:58:16.605Z,64.10
2019-04-26T20:00:46.825Z,64.30
2019-04-26T20:03:17.687Z,64.20
2019-04-26T20:05:48.101Z,64.40
2019-04-26T20:08:19.712Z,64.30
2019-04-26T20:10:51.973Z,64.40
2019-04-26T20:13:22.509Z,64.50
2019-04-26T20:15:57.302Z,64.70
2019-04-26T20:18:25.886Z,64.50
2019-04-26T20:20:56.305Z,64.60
2019-04-26T20:23:26.732Z,64.90
2019-04-26T20:26:02.356Z,65.20
2019-04-26T20:28:35.885Z,65.20
2019-04-26T20:31:24.204Z,64.80
2019-04-26T20:33:54.622Z,64.50
2019-04-26T20:36:25.075Z,64.70
2019-04-26T20:38:55.652Z,64.90
2019-04-26T20:41:26.294Z,65.00
2019-04-26T20:44:07.059Z,64.80
2019-04-26T20:46:29.766Z,64.80
2019-04-26T20:49:01.484Z,65.00
2019-04-26T20:51:33.140Z,64.60
2019-04-26T20:54:03.883Z,64.60
2019-04-26T20:56:34.647Z,64.40
2019-04-26T20:59:05.121Z,64.20
2019-04-26T21:01:35.573Z,64.50
2019-04-26T21:04:06.117Z,64.50
2019-04-26T21:06:37.017Z,64.60
2019-04-26T21:09:09.544Z,65.00
2019-04-26T21:11:41.245Z,65.00
2019-04-26T21:14:12.323Z,65.00
2019-04-26T21:16:43.697Z,64.90
2019-04-26T21:19:19.063Z,64.90
2019-04-26T21:21:48.385Z,64.50
2019-04-26T21:24:23.417Z,64.30
2019-04-26T21:27:11.263Z,64.20
2019-04-26T21:29:58.979Z,64.00
2019-04-26T21:32:45.192Z,64.20
2019-04-26T21:35:20.384Z,64.20
2019-04-26T21:37:56.487Z,64.50
2019-04-26T21:40:33.587Z,64.40
2019-04-26T21:43:04.212Z,64.60
2019-04-26T21:45:34.877Z,64.50
2019-04-26T21:48:06.949Z,64.50
2019-04-26T21:50:39.080Z,64.30
2019-04-26T21:53:09.992Z,64.40
2019-04-26T21:55:40.385Z,64.30
2019-04-26T21:58:10.801Z,64.20
2019-04-26T22:01:11.003Z,64.20
2019-04-26T22:03:47.417Z,63.90
2019-04-26T22:06:14.249Z,63.80
2019-04-26T22:09:06.481Z,64.00
2019-04-26T22:11:38.580Z,63.90
2019-04-26T22:14:20.042Z,63.60
2019-04-26T22:17:02.036Z,63.90
2019-04-26T22:19:53.452Z,63.40
2019-04-26T22:22:45.989Z,63.10
2019-04-26T22:25:17.962Z,63.50
2019-04-26T22:27:48.333Z,63.10
2019-04-26T22:30:29.408Z,63.40
2019-04-26T22:33:00.037Z,63.50
2019-04-26T22:35:30.426Z,63.50
2019-04-26T22:38:00.915Z,63.60
2019-04-26T22:40:33.414Z,64.00
2019-04-26T22:43:20.038Z,64.10
2019-04-26T22:45:53.591Z,64.10
2019-04-26T22:48:34.006Z,64.40
2019-04-26T22:51:05.516Z,64.20
2019-04-26T22:53:35.965Z,64.50
2019-04-26T22:56:06.472Z,64.70
2019-04-26T22:58:36.843Z,64.70
2019-04-26T23:01:07.387Z,64.90
2019-04-26T23:03:41.138Z,65.30
2019-04-26T23:06:11.682Z,65.40
2019-04-26T23:08:43.806Z,65.40
2019-04-26T23:11:15.551Z,65.50
2019-04-26T23:14:05.022Z,65.50
2019-04-26T23:17:04.320Z,65.90
2019-04-26T23:19:43.683Z,65.90
2019-04-26T23:22:14.150Z,65.50
2019-04-26T23:24:44.880Z,66.10
2019-04-26T23:27:20.423Z,65.60
2019-04-26T23:29:49.904Z,65.80
2019-04-26T23:32:20.155Z,65.90
2019-04-26T23:34:50.872Z,65.90
2019-04-26T23:37:24.215Z,65.80
2019-04-26T23:39:53.722Z,65.60
2019-04-26T23:42:25.134Z,65.50
2019-04-26T23:44:56.761Z,65.80
2019-04-26T23:47:27.272Z,66.00
2019-04-26T23:49:57.636Z,66.50
2019-04-26T23:52:28.165Z,66.80
2019-04-26T23:54:58.595Z,66.80
2019-04-26T23:57:31.309Z,66.80
